createdAt,value
2024-04-14T00:00:25.352Z,101023.31
2024-04-14T00:02:55.436Z,101029.72
2024-04-14T00:05:23.224Z,101026.66
2024-04-14T00:07:50.856Z,101026.69
2024-04-14T00:10:18.817Z,101031.34
2024-04-14T00:12:46.301Z,101039.56
2024-04-14T00:15:28.174Z,101041.06
2024-04-14T00:17:58.090Z,101038.50
2024-04-14T00:20:27.002Z,101039.59
2024-04-14T00:22:57.625Z,101029.47
2024-04-14T00:25:24.985Z,101037.28
2024-04-14T00:27:52.292Z,101043.19
2024-04-14T00:30:19.927Z,101045.13
2024-04-14T00:32:48.671Z,101034.13
2024-04-14T00:35:16.399Z,101030.75
2024-04-14T00:37:46.321Z,101044.66
2024-04-14T00:40:13.737Z,101052.25
2024-04-14T00:42:43.657Z,101051.41
2024-04-14T00:45:13.474Z,101051.38
2024-04-14T00:47:41.488Z,101046.13
2024-04-14T00:50:11.249Z,101048.44
2024-04-14T00:52:43.599Z,101064.03
2024-04-14T00:55:13.036Z,101059.22
2024-04-14T00:57:43.654Z,101068.50
2024-04-14T01:00:12.881Z,101061.50
2024-04-14T01:02:40.079Z,101066.13
2024-04-14T01:05:07.916Z,101056.00
2024-04-14T01:07:35.804Z,101053.91
2024-04-14T01:10:05.818Z,101060.78
2024-04-14T01:12:33.366Z,101052.91
2024-04-14T01:15:03.419Z,101062.19
2024-04-14T01:17:30.880Z,101060.53
2024-04-14T01:19:58.097Z,101059.09
2024-04-14T01:22:25.337Z,101047.47
2024-04-14T01:24:57.806Z,101044.19
2024-04-14T01:27:27.684Z,101041.59
2024-04-14T01:29:55.635Z,101040.69
2024-04-14T01:32:23.021Z,101033.72
2024-04-14T01:34:50.198Z,101044.91
2024-04-14T01:37:17.356Z,101060.97
2024-04-14T01:39:47.214Z,101065.75
2024-04-14T01:42:14.737Z,101058.81
2024-04-14T01:44:42.371Z,101062.09
2024-04-14T01:47:10.892Z,101049.97
2024-04-14T01:49:40.647Z,101070.56
2024-04-14T01:52:08.044Z,101076.81
2024-04-14T01:54:37.916Z,101078.69
2024-04-14T01:57:05.775Z,101070.47
2024-04-14T01:59:33.821Z,101078.50
2024-04-14T02:02:00.989Z,101077.16
2024-04-14T02:04:30.838Z,101070.78
2024-04-14T02:06:58.507Z,101090.13
2024-04-14T02:09:26.057Z,101094.56
2024-04-14T02:11:53.625Z,101086.09
2024-04-14T02:14:21.101Z,101087.41
2024-04-14T02:16:48.472Z,101086.47
2024-04-14T02:19:17.038Z,101100.56
2024-04-14T02:21:44.741Z,101105.00
2024-04-14T02:24:12.142Z,101104.25
2024-04-14T02:26:39.443Z,101107.16
2024-04-14T02:29:09.197Z,101116.00
2024-04-14T02:31:39.112Z,101107.16
2024-04-14T02:34:09.487Z,101114.28
2024-04-14T02:36:39.280Z,101113.41
2024-04-14T02:39:10.047Z,101117.53
2024-04-14T02:41:39.330Z,101122.06
2024-04-14T02:44:07.117Z,101114.19
2024-04-14T02:46:36.442Z,101118.78
2024-04-14T02:49:04.096Z,101121.94
2024-04-14T02:51:34.156Z,101127.09
2024-04-14T02:54:01.608Z,101127.41
2024-04-14T02:56:29.451Z,101116.59
2024-04-14T02:58:56.992Z,101121.69
2024-04-14T03:01:26.842Z,101120.34
2024-04-14T03:03:56.886Z,101128.34
2024-04-14T03:06:29.667Z,101131.84
2024-04-14T03:08:56.941Z,101130.16
2024-04-14T03:11:26.914Z,101133.03
2024-04-14T03:13:57.979Z,101137.84
2024-04-14T03:16:25.416Z,101145.31
2024-04-14T03:18:53.017Z,101145.88
2024-04-14T03:21:23.787Z,101151.41
2024-04-14T03:23:51.852Z,101138.25
2024-04-14T03:26:21.596Z,101145.81
2024-04-14T03:28:49.225Z,101141.91
2024-04-14T03:31:16.704Z,101146.09
2024-04-14T03:33:44.070Z,101158.06
2024-04-14T03:36:11.430Z,101153.81
2024-04-14T03:38:38.915Z,101177.34
2024-04-14T03:41:06.856Z,101175.34
2024-04-14T03:43:34.204Z,101178.88
2024-04-14T03:46:04.109Z,101175.00
2024-04-14T03:48:31.446Z,101179.25
2024-04-14T03:51:01.253Z,101191.78
2024-04-14T03:53:31.774Z,101196.03
2024-04-14T03:55:59.042Z,101194.69
2024-04-14T03:58:26.292Z,101195.94
2024-04-14T04:00:53.743Z,101193.75
2024-04-14T04:03:21.340Z,101190.72
2024-04-14T04:05:56.619Z,101194.94
2024-04-14T04:08:24.863Z,101191.47
2024-04-14T04:11:04.562Z,101202.28
2024-04-14T04:13:35.916Z,101217.81
2024-04-14T04:16:08.445Z,101215.72
2024-04-14T04:18:37.428Z,101221.94
2024-04-14T04:21:10.836Z,101219.34
2024-04-14T04:23:38.498Z,101227.78
2024-04-14T04:26:06.010Z,101224.31
2024-04-14T04:28:36.903Z,101226.66
2024-04-14T04:31:15.370Z,101224.16
2024-04-14T04:33:45.670Z,101226.66
2024-04-14T04:36:15.452Z,101241.09
2024-04-14T04:38:45.683Z,101247.22
2024-04-14T04:41:16.346Z,101266.31
2024-04-14T04:43:44.924Z,101261.22
2024-04-14T04:46:12.609Z,101269.88
2024-04-14T04:48:40.335Z,101265.72
2024-04-14T04:51:10.229Z,101272.97
2024-04-14T04:53:37.433Z,101277.41
2024-04-14T04:56:05.091Z,101278.78
2024-04-14T04:58:32.511Z,101282.56
2024-04-14T05:01:00.330Z,101301.88
2024-04-14T05:03:32.517Z,101308.16
2024-04-14T05:06:02.816Z,101315.63
2024-04-14T05:08:30.665Z,101314.25
2024-04-14T05:11:00.156Z,101317.81
2024-04-14T05:13:32.255Z,101318.59
2024-04-14T05:16:04.984Z,101314.63
2024-04-14T05:18:35.732Z,101321.84
2024-04-14T05:21:03.360Z,101326.09
2024-04-14T05:23:30.982Z,101325.16
2024-04-14T05:26:02.234Z,101324.06
2024-04-14T05:28:43.838Z,101335.16
2024-04-14T05:31:15.265Z,101333.16
2024-04-14T05:33:42.571Z,101329.28
2024-04-14T05:36:10.043Z,101327.59
2024-04-14T05:38:43.434Z,101325.06
2024-04-14T05:41:13.608Z,101341.81
2024-04-14T05:43:41.639Z,101331.56
2024-04-14T05:46:11.797Z,101338.78
2024-04-14T05:49:18.587Z,101345.78
2024-04-14T05:51:59.528Z,101347.41
2024-04-14T05:54:27.475Z,101360.03
2024-04-14T05:56:57.309Z,101358.34
2024-04-14T05:59:24.813Z,101363.75
2024-04-14T06:01:54.902Z,101382.91
2024-04-14T06:04:24.951Z,101389.00
2024-04-14T06:06:53.274Z,101394.75
2024-04-14T06:09:22.873Z,101395.69
2024-04-14T06:11:53.701Z,101396.53
2024-04-14T06:14:24.277Z,101405.06
2024-04-14T06:16:54.615Z,101386.16
2024-04-14T06:19:25.549Z,101395.28
2024-04-14T06:22:04.045Z,101405.34
2024-04-14T06:24:31.394Z,101395.56
2024-04-14T06:26:58.824Z,101400.81
2024-04-14T06:29:26.418Z,101394.97
2024-04-14T06:31:59.397Z,101407.47
2024-04-14T06:34:37.572Z,101399.19
2024-04-14T06:37:24.086Z,101410.00
2024-04-14T06:40:01.738Z,101397.56
2024-04-14T06:42:30.146Z,101407.25
2024-04-14T06:44:57.631Z,101399.50
2024-04-14T06:47:42.914Z,101404.09
2024-04-14T06:50:15.831Z,101413.50
2024-04-14T06:52:57.407Z,101402.59
2024-04-14T06:55:28.418Z,101411.72
2024-04-14T06:58:16.519Z,101414.16
2024-04-14T07:01:03.108Z,101415.97
2024-04-14T07:03:35.152Z,101427.03
2024-04-14T07:06:06.162Z,101431.63
2024-04-14T07:08:56.065Z,101422.66
2024-04-14T07:11:39.476Z,101425.72
2024-04-14T07:14:19.348Z,101418.03
2024-04-14T07:17:02.300Z,101430.56
2024-04-14T07:19:43.873Z,101428.25
2024-04-14T07:22:12.231Z,101427.03
2024-04-14T07:24:41.971Z,101427.22
2024-04-14T07:27:09.370Z,101429.13
2024-04-14T07:29:37.349Z,101424.81
2024-04-14T07:32:05.368Z,101430.50
2024-04-14T07:34:33.152Z,101434.03
2024-04-14T07:37:04.264Z,101425.88
2024-04-14T07:39:35.277Z,101420.06
2024-04-14T07:42:09.748Z,101429.66
2024-04-14T07:44:39.986Z,101428.78
2024-04-14T07:47:10.260Z,101431.97
2024-04-14T07:49:38.201Z,101439.59
2024-04-14T07:52:06.225Z,101452.72
2024-04-14T07:54:35.977Z,101448.53
2024-04-14T07:57:06.999Z,101448.94
2024-04-14T07:59:34.527Z,101458.59
2024-04-14T08:02:03.286Z,101458.59
2024-04-14T08:04:32.960Z,101449.78
2024-04-14T08:07:01.168Z,101456.13
2024-04-14T08:09:32.309Z,101463.16
2024-04-14T08:12:00.060Z,101454.31
2024-04-14T08:14:27.360Z,101455.66
2024-04-14T08:16:56.963Z,101466.94
2024-04-14T08:19:25.645Z,101473.28
2024-04-14T08:21:53.812Z,101467.22
2024-04-14T08:24:26.268Z,101470.25
2024-04-14T08:26:56.285Z,101459.53
2024-04-14T08:29:24.266Z,101459.94
2024-04-14T08:31:51.841Z,101465.44
2024-04-14T08:34:22.984Z,101469.28
2024-04-14T08:36:52.181Z,101468.41
2024-04-14T08:39:23.159Z,101481.06
2024-04-14T08:41:54.284Z,101485.50
2024-04-14T08:44:22.112Z,101493.69
2024-04-14T08:46:50.106Z,101478.53
2024-04-14T08:49:20.358Z,101476.25
2024-04-14T08:51:51.420Z,101476.88
2024-04-14T08:54:19.282Z,101479.84
2024-04-14T08:56:53.471Z,101487.78
2024-04-14T08:59:29.646Z,101481.28
2024-04-14T09:01:59.180Z,101482.88
2024-04-14T09:04:27.264Z,101491.78
2024-04-14T09:06:54.660Z,101502.13
2024-04-14T09:09:24.806Z,101489.34
2024-04-14T09:11:55.500Z,101497.75
2024-04-14T09:14:24.258Z,101501.75
2024-04-14T09:16:52.997Z,101505.75
2024-04-14T09:19:20.645Z,101509.47
2024-04-14T09:21:48.558Z,101506.94
2024-04-14T09:24:15.917Z,101508.00
2024-04-14T09:26:45.571Z,101519.41
2024-04-14T09:29:16.491Z,101521.53
2024-04-14T09:31:46.412Z,101519.13
2024-04-14T09:34:14.151Z,101522.63
2024-04-14T09:36:45.734Z,101530.53
2024-04-14T09:39:16.795Z,101529.63
2024-04-14T09:41:45.599Z,101521.50
2024-04-14T09:44:14.066Z,101510.81
2024-04-14T09:46:45.011Z,101528.94
2024-04-14T09:49:15.328Z,101532.06
2024-04-14T09:51:44.839Z,101531.06
2024-04-14T09:54:17.536Z,101535.09
2024-04-14T09:56:45.004Z,101532.19
2024-04-14T09:59:12.772Z,101531.56
2024-04-14T10:01:47.317Z,101538.66
2024-04-14T10:04:17.911Z,101527.66
2024-04-14T10:06:46.251Z,101535.16
2024-04-14T10:09:13.756Z,101533.66
2024-04-14T10:11:47.059Z,101540.34
2024-04-14T10:14:17.340Z,101536.63
2024-04-14T10:17:00.658Z,101540.44
2024-04-14T10:19:29.543Z,101526.38
2024-04-14T10:22:08.783Z,101533.84
2024-04-14T10:25:06.376Z,101524.06
2024-04-14T10:27:37.594Z,101526.47
2024-04-14T10:30:07.335Z,101525.97
2024-04-14T10:32:37.163Z,101518.06
2024-04-14T10:35:20.564Z,101522.91
2024-04-14T10:37:56.196Z,101513.97
2024-04-14T10:40:28.175Z,101526.47
2024-04-14T10:42:55.755Z,101523.41
2024-04-14T10:45:31.147Z,101521.09
2024-04-14T10:48:03.737Z,101532.31
2024-04-14T10:50:31.331Z,101529.22
2024-04-14T10:52:58.612Z,101529.22
2024-04-14T10:55:29.515Z,101531.09
2024-04-14T10:57:56.921Z,101520.94
2024-04-14T11:00:24.720Z,101521.00
2024-04-14T11:02:54.750Z,101522.84
2024-04-14T11:05:24.684Z,101520.81
2024-04-14T11:07:54.119Z,101516.94
2024-04-14T11:10:26.214Z,101513.31
2024-04-14T11:12:54.847Z,101510.59
2024-04-14T11:15:22.296Z,101504.66
2024-04-14T11:17:49.600Z,101518.00
2024-04-14T11:20:17.309Z,101519.94
2024-04-14T11:22:47.539Z,101515.72
2024-04-14T11:25:14.996Z,101520.28
2024-04-14T11:27:42.448Z,101517.53
2024-04-14T11:30:13.011Z,101514.59
2024-04-14T11:32:40.938Z,101502.13
2024-04-14T11:35:10.623Z,101515.66
2024-04-14T11:37:46.241Z,101512.53
2024-04-14T11:40:19.158Z,101520.81
2024-04-14T11:42:46.630Z,101508.91
2024-04-14T11:45:14.540Z,101515.56
2024-04-14T11:47:42.049Z,101507.78
2024-04-14T11:50:13.533Z,101520.31
2024-04-14T11:52:43.617Z,101522.31
2024-04-14T11:55:13.741Z,101517.53
2024-04-14T11:57:41.255Z,101526.59
2024-04-14T12:00:09.308Z,101535.03
2024-04-14T12:02:36.796Z,101527.00
2024-04-14T12:05:07.602Z,101526.38
2024-04-14T12:07:39.685Z,101526.09
2024-04-14T12:10:07.962Z,101526.31
2024-04-14T12:12:37.935Z,101526.50
2024-04-14T12:15:06.191Z,101527.88
2024-04-14T12:17:33.704Z,101523.56
2024-04-14T12:20:03.591Z,101533.94
2024-04-14T12:22:31.085Z,101522.97
2024-04-14T12:24:58.591Z,101524.63
2024-04-14T12:27:30.704Z,101514.47
2024-04-14T12:30:00.762Z,101513.22
2024-04-14T12:32:29.022Z,101508.75
2024-04-14T12:34:56.480Z,101509.22
2024-04-14T12:37:23.951Z,101513.19
2024-04-14T12:39:56.681Z,101506.88
2024-04-14T12:42:24.242Z,101505.84
2024-04-14T12:44:51.616Z,101522.59
2024-04-14T12:47:24.380Z,101506.94
2024-04-14T12:49:53.907Z,101507.25
2024-04-14T12:52:21.343Z,101492.13
2024-04-14T12:54:49.093Z,101509.72
2024-04-14T12:57:20.907Z,101495.06
2024-04-14T12:59:54.320Z,101494.25
2024-04-14T13:02:21.933Z,101491.56
2024-04-14T13:04:52.038Z,101494.28
2024-04-14T13:07:22.105Z,101480.13
2024-04-14T13:09:50.180Z,101492.38
2024-04-14T13:12:17.655Z,101488.59
2024-04-14T13:14:45.699Z,101489.91
2024-04-14T13:17:13.252Z,101477.13
2024-04-14T13:19:40.644Z,101472.94
2024-04-14T13:22:10.239Z,101468.66
2024-04-14T13:24:37.684Z,101455.03
2024-04-14T13:27:05.117Z,101461.22
2024-04-14T13:29:33.262Z,101463.47
2024-04-14T13:32:01.186Z,101454.72
2024-04-14T13:34:28.227Z,101454.66
2024-04-14T13:36:58.285Z,101448.59
2024-04-14T13:39:28.227Z,101460.22
2024-04-14T13:41:57.829Z,101449.53
2024-04-14T13:44:25.327Z,101447.63
2024-04-14T13:46:57.495Z,101449.41
2024-04-14T13:49:24.866Z,101450.22
2024-04-14T13:51:52.373Z,101435.63
2024-04-14T13:54:19.864Z,101447.72
2024-04-14T13:56:49.271Z,101441.72
2024-04-14T13:59:16.810Z,101447.91
2024-04-14T14:01:46.514Z,101438.13
2024-04-14T14:04:13.718Z,101433.31
2024-04-14T14:06:43.829Z,101429.88
2024-04-14T14:09:14.445Z,101412.72
2024-04-14T14:11:44.434Z,101425.72
2024-04-14T14:14:11.477Z,101423.25
2024-04-14T14:16:38.894Z,101419.38
2024-04-14T14:19:06.352Z,101421.25
2024-04-14T14:21:35.820Z,101427.22
2024-04-14T14:24:06.487Z,101420.88
2024-04-14T14:26:35.947Z,101414.63
2024-04-14T14:29:03.449Z,101416.50
2024-04-14T14:31:30.928Z,101407.50
2024-04-14T14:34:17.625Z,101407.00
2024-04-14T14:36:45.157Z,101407.84
2024-04-14T14:39:12.632Z,101404.25
2024-04-14T14:41:43.388Z,101409.97
2024-04-14T14:44:13.344Z,101405.97
2024-04-14T14:46:42.912Z,101397.31
2024-04-14T14:49:10.543Z,101389.25
2024-04-14T14:51:41.255Z,101389.22
2024-04-14T14:54:12.928Z,101393.28
2024-04-14T14:56:40.248Z,101374.81
2024-04-14T14:59:07.574Z,101381.53
2024-04-14T15:01:35.211Z,101385.97
2024-04-14T15:04:05.348Z,101386.06
2024-04-14T15:06:35.370Z,101390.25
2024-04-14T15:09:04.757Z,101375.81
2024-04-14T15:11:32.170Z,101368.09
2024-04-14T15:13:59.607Z,101373.66
2024-04-14T15:16:28.360Z,101371.88
2024-04-14T15:18:55.867Z,101366.69
2024-04-14T15:21:29.299Z,101366.97
2024-04-14T15:24:00.823Z,101365.66
2024-04-14T15:26:30.758Z,101367.75
2024-04-14T15:29:00.324Z,101358.47
2024-04-14T15:31:27.973Z,101361.66
2024-04-14T15:33:55.880Z,101350.97
2024-04-14T15:36:23.311Z,101361.88
2024-04-14T15:38:50.789Z,101357.78
2024-04-14T15:41:21.636Z,101351.34
2024-04-14T15:43:53.292Z,101358.09
2024-04-14T15:46:20.603Z,101362.81
2024-04-14T15:48:53.530Z,101353.13
2024-04-14T15:51:21.460Z,101356.34
2024-04-14T15:53:54.771Z,101354.69
2024-04-14T15:56:27.719Z,101358.84
2024-04-14T15:58:56.452Z,101354.53
2024-04-14T16:01:23.982Z,101354.94
2024-04-14T16:03:52.800Z,101352.03
2024-04-14T16:06:22.396Z,101345.84
2024-04-14T16:08:53.072Z,101339.00
2024-04-14T16:11:20.438Z,101349.38
2024-04-14T16:13:47.846Z,101338.75
2024-04-14T16:16:21.627Z,101350.34
2024-04-14T16:18:49.593Z,101344.22
2024-04-14T16:21:19.503Z,101352.84
2024-04-14T16:23:50.428Z,101347.59
2024-04-14T16:26:17.808Z,101353.06
2024-04-14T16:28:49.889Z,101350.25
2024-04-14T16:31:20.632Z,101346.06
2024-04-14T16:33:48.161Z,101346.53
2024-04-14T16:36:15.699Z,101340.06
2024-04-14T16:38:44.521Z,101340.88
2024-04-14T16:41:14.513Z,101348.78
2024-04-14T16:43:44.526Z,101345.56
2024-04-14T16:46:12.035Z,101352.19
2024-04-14T16:48:39.852Z,101352.88
2024-04-14T16:51:07.098Z,101352.34
2024-04-14T16:53:37.119Z,101358.34
2024-04-14T16:56:07.271Z,101348.44
2024-04-14T16:58:35.371Z,101350.78
2024-04-14T17:01:06.277Z,101339.16
2024-04-14T17:03:33.785Z,101327.00
2024-04-14T17:06:01.149Z,101336.34
2024-04-14T17:08:29.186Z,101335.88
2024-04-14T17:10:59.325Z,101342.28
2024-04-14T17:13:26.778Z,101335.00
2024-04-14T17:15:54.801Z,101327.88
2024-04-14T17:18:22.234Z,101333.69
2024-04-14T17:20:52.499Z,101336.00
2024-04-14T17:23:19.981Z,101338.19
2024-04-14T17:25:49.745Z,101325.56
2024-04-14T17:28:17.187Z,101330.31
2024-04-14T17:30:47.607Z,101317.41
2024-04-14T17:33:15.149Z,101317.44
2024-04-14T17:35:42.667Z,101316.09
2024-04-14T17:38:10.003Z,101325.91
2024-04-14T17:40:41.429Z,101323.13
2024-04-14T17:43:11.802Z,101317.19
2024-04-14T17:45:45.035Z,101328.34
2024-04-14T17:48:14.607Z,101325.91
2024-04-14T17:50:44.301Z,101316.56
2024-04-14T17:53:11.613Z,101326.69
2024-04-14T17:55:38.862Z,101325.56
2024-04-14T17:58:06.163Z,101324.88
2024-04-14T18:00:33.688Z,101323.19
2024-04-14T18:03:01.249Z,101317.53
2024-04-14T18:05:28.455Z,101328.19
2024-04-14T18:07:58.343Z,101324.31
2024-04-14T18:10:27.965Z,101319.72
2024-04-14T18:12:55.521Z,101322.44
2024-04-14T18:15:22.736Z,101318.56
2024-04-14T18:17:50.063Z,101318.00
2024-04-14T18:20:17.787Z,101311.22
2024-04-14T18:22:45.189Z,101320.56
2024-04-14T18:25:14.572Z,101323.16
2024-04-14T18:27:43.228Z,101323.31
2024-04-14T18:30:10.740Z,101323.75
2024-04-14T18:32:41.450Z,101323.13
2024-04-14T18:35:08.775Z,101327.06
2024-04-14T18:37:37.195Z,101323.75
2024-04-14T18:40:05.998Z,101332.44
2024-04-14T18:42:33.144Z,101330.28
2024-04-14T18:45:00.976Z,101327.47
2024-04-14T18:47:33.594Z,101327.84
2024-04-14T18:50:01.020Z,101322.78
2024-04-14T18:52:32.066Z,101326.16
2024-04-14T18:55:02.783Z,101327.75
2024-04-14T18:57:33.386Z,101323.47
2024-04-14T19:00:00.982Z,101328.94
2024-04-14T19:02:31.004Z,101327.50
2024-04-14T19:05:01.363Z,101324.03
2024-04-14T19:07:28.877Z,101323.13
2024-04-14T19:09:59.490Z,101318.59
2024-04-14T19:12:26.693Z,101318.50
2024-04-14T19:15:00.529Z,101309.22
2024-04-14T19:17:30.398Z,101307.78
2024-04-14T19:19:57.714Z,101315.97
2024-04-14T19:22:25.653Z,101318.81
2024-04-14T19:24:54.072Z,101310.44
2024-04-14T19:27:21.274Z,101318.31
2024-04-14T19:29:51.134Z,101321.25
2024-04-14T19:32:23.965Z,101323.25
2024-04-14T19:34:51.059Z,101321.75
2024-04-14T19:37:19.097Z,101321.44
2024-04-14T19:39:51.808Z,101310.72
2024-04-14T19:42:22.912Z,101308.03
2024-04-14T19:44:52.697Z,101321.78
2024-04-14T19:47:22.555Z,101323.31
2024-04-14T19:49:52.346Z,101328.75
2024-04-14T19:52:20.448Z,101320.44
2024-04-14T19:54:56.830Z,101320.41
2024-04-14T19:57:29.975Z,101320.09
2024-04-14T19:59:57.880Z,101316.38
2024-04-14T20:02:26.469Z,101316.53
2024-04-14T20:04:56.273Z,101315.50
2024-04-14T20:07:24.919Z,101313.31
2024-04-14T20:09:52.995Z,101314.50
2024-04-14T20:12:20.407Z,101321.84
2024-04-14T20:14:47.899Z,101321.84
2024-04-14T20:17:17.671Z,101316.22
2024-04-14T20:19:49.719Z,101310.28
2024-04-14T20:22:17.059Z,101305.34
2024-04-14T20:24:48.765Z,101309.41
2024-04-14T20:27:18.588Z,101299.03
2024-04-14T20:29:48.663Z,101302.09
2024-04-14T20:32:15.979Z,101300.41
2024-04-14T20:34:43.209Z,101291.56
2024-04-14T20:37:11.414Z,101280.34
2024-04-14T20:39:39.021Z,101284.06
2024-04-14T20:42:16.847Z,101282.72
2024-04-14T20:44:44.173Z,101279.47
2024-04-14T20:47:12.195Z,101265.72
2024-04-14T20:49:41.124Z,101262.31
2024-04-14T20:52:11.938Z,101264.69
2024-04-14T20:54:45.631Z,101264.16
2024-04-14T20:57:18.071Z,101253.47
2024-04-14T20:59:46.524Z,101257.53
2024-04-14T21:02:14.035Z,101249.38
2024-04-14T21:04:48.948Z,101236.97
2024-04-14T21:07:17.995Z,101231.00
2024-04-14T21:09:46.125Z,101233.75
2024-04-14T21:12:13.744Z,101229.81
2024-04-14T21:14:45.910Z,101221.84
2024-04-14T21:17:17.908Z,101215.03
2024-04-14T21:19:50.308Z,101218.09
2024-04-14T21:22:18.118Z,101211.28
2024-04-14T21:24:47.943Z,101211.28
2024-04-14T21:27:16.813Z,101219.78
2024-04-14T21:29:49.994Z,101209.94
2024-04-14T21:32:17.405Z,101210.94
2024-04-14T21:34:48.477Z,101200.41
2024-04-14T21:37:15.790Z,101206.69
2024-04-14T21:39:46.397Z,101198.53
2024-04-14T21:42:13.663Z,101190.56
2024-04-14T21:44:40.942Z,101182.22
2024-04-14T21:47:08.662Z,101179.50
2024-04-14T21:49:37.239Z,101168.78
2024-04-14T21:52:05.337Z,101165.22
2024-04-14T21:54:32.471Z,101156.91
2024-04-14T21:56:59.602Z,101150.28
2024-04-14T21:59:31.632Z,101152.50
2024-04-14T22:01:58.833Z,101157.59
2024-04-14T22:04:29.886Z,101153.69
2024-04-14T22:06:57.268Z,101155.19
2024-04-14T22:09:27.610Z,101151.63
2024-04-14T22:11:54.993Z,101151.28
2024-04-14T22:14:22.970Z,101149.59
2024-04-14T22:16:50.912Z,101145.69
2024-04-14T22:19:21.110Z,101136.50
2024-04-14T22:21:50.749Z,101135.78
2024-04-14T22:24:20.641Z,101148.06
2024-04-14T22:26:48.056Z,101151.63
2024-04-14T22:29:17.963Z,101147.38
2024-04-14T22:31:46.134Z,101152.81
2024-04-14T22:34:20.164Z,101146.66
2024-04-14T22:36:52.658Z,101153.09
2024-04-14T22:39:20.176Z,101153.91
2024-04-14T22:41:47.825Z,101152.03
2024-04-14T22:44:16.326Z,101161.56
2024-04-14T22:46:46.226Z,101151.00
2024-04-14T22:49:13.471Z,101147.41
2024-04-14T22:51:40.785Z,101129.19
2024-04-14T22:54:10.232Z,101151.34
2024-04-14T22:56:37.250Z,101159.16
2024-04-14T22:59:07.598Z,101162.41
2024-04-14T23:01:35.006Z,101147.53
2024-04-14T23:04:03.136Z,101147.53
2024-04-14T23:06:38.332Z,101139.44
2024-04-14T23:09:09.246Z,101130.53
2024-04-14T23:11:37.200Z,101130.81
2024-04-14T23:14:05.112Z,101115.63
2024-04-14T23:16:32.954Z,101112.59
2024-04-14T23:19:02.843Z,101105.50
2024-04-14T23:21:30.119Z,101099.06
2024-04-14T23:23:58.139Z,101092.28
2024-04-14T23:26:28.149Z,101092.22
2024-04-14T23:28:58.420Z,101080.34
2024-04-14T23:31:28.310Z,101079.03
2024-04-14T23:33:55.719Z,101079.03
2024-04-14T23:36:25.475Z,101080.03
2024-04-14T23:38:52.847Z,101074.38
2024-04-14T23:41:20.041Z,101065.88
2024-04-14T23:43:48.121Z,101062.00
2024-04-14T23:46:15.691Z,101049.75
2024-04-14T23:48:51.304Z,101049.09
2024-04-14T23:51:18.368Z,101051.81
2024-04-14T23:53:45.814Z,101041.28
2024-04-14T23:56:16.660Z,101050.44
2024-04-14T23:58:48.799Z,101060.84
